Time;durP1;ratioP1;P1;durP2;ratioP2;P2;SDS_P1;SDS_P2;PMS_P1;PMS_P2;Temp;Humidity;BMP_temperature;BMP_pressure;BME280_temperature;BME280_humidity;BME280_pressure;Samples;Min_cycle;Max_cycle;Signal;HPM_P1;HPM_P2
2022/03/04 00:00:24;;;;;;;24.00;8.75;;;;;;;-3.84;69.11;95434.34;4991106;28;20050;-73
2022/03/04 00:03:06;;;;;;;21.58;8.48;;;;;;;-3.84;68.96;95436.91;4990821;28;20050;-74
2022/03/04 00:05:32;;;;;;;23.45;9.93;;;;;;;-3.85;69.53;95440.44;4988411;28;20459;-73
2022/03/04 00:07:57;;;;;;;22.50;9.80;;;;;;;-3.75;68.82;95440.16;4991274;28;20054;-74
2022/03/04 00:10:23;;;;;;;22.00;9.68;;;;;;;-3.77;68.70;95435.22;4990989;28;20103;-74
2022/03/04 00:12:48;;;;;;;26.05;10.40;;;;;;;-3.83;68.81;95435.94;4981440;28;20070;-74
2022/03/04 00:15:14;;;;;;;24.83;9.68;;;;;;;-3.83;69.15;95446.22;4991499;28;20038;-74
2022/03/04 00:17:40;;;;;;;19.35;8.80;;;;;;;-3.87;68.91;95447.56;4991278;28;20047;-74
2022/03/04 00:20:08;;;;;;;24.35;9.45;;;;;;;-3.89;69.13;95452.09;4990755;28;20051;-74
2022/03/04 00:22:33;;;;;;;19.85;9.13;;;;;;;-3.95;68.99;95452.78;4973796;28;20043;-74
2022/03/04 00:24:59;;;;;;;20.33;9.23;;;;;;;-3.97;69.65;95450.41;4978953;28;20056;-74
2022/03/04 00:27:24;;;;;;;20.25;9.15;;;;;;;-3.92;69.47;95452.44;4975784;28;20038;-74
2022/03/04 00:29:50;;;;;;;21.48;9.00;;;;;;;-3.91;68.85;95459.19;4991270;28;20038;-74
2022/03/04 00:32:15;;;;;;;20.80;8.82;;;;;;;-3.89;68.88;95454.66;4989232;28;20423;-74
2022/03/04 00:34:42;;;;;;;19.20;8.40;;;;;;;-3.94;69.36;95449.25;4983324;28;20073;-74
2022/03/04 00:37:08;;;;;;;19.05;8.48;;;;;;;-4.01;69.51;95454.31;4989472;28;20069;-74
2022/03/04 00:39:34;;;;;;;18.90;8.50;;;;;;;-4.06;69.39;95454.84;4979193;28;20660;-74
2022/03/04 00:41:59;;;;;;;21.02;9.23;;;;;;;-4.09;70.20;95447.50;4980091;28;20131;-73
2022/03/04 00:44:25;;;;;;;24.80;9.90;;;;;;;-4.01;69.91;95454.31;4989555;28;20042;-73
2022/03/04 00:46:50;;;;;;;24.98;9.10;;;;;;;-4.08;70.22;95458.56;4987757;28;20050;-73
2022/03/04 00:49:16;;;;;;;22.08;9.45;;;;;;;-4.14;70.26;95451.59;4990386;28;20043;-73
2022/03/04 00:51:41;;;;;;;24.92;9.77;;;;;;;-4.19;70.75;95454.69;4977806;28;20050;-73
2022/03/04 00:54:07;;;;;;;22.77;10.27;;;;;;;-4.21;70.45;95459.19;4989437;28;20049;-73
2022/03/04 00:56:33;;;;;;;19.77;8.82;;;;;;;-4.30;71.10;95460.28;4981037;28;20504;-73
2022/03/04 00:58:58;;;;;;;21.35;9.73;;;;;;;-4.38;71.42;95454.25;4989060;28;20050;-73
2022/03/04 01:01:24;;;;;;;21.05;9.00;;;;;;;-4.37;71.10;95453.28;4990449;28;20412;-73
2022/03/04 01:03:49;;;;;;;26.23;10.10;;;;;;;-4.47;71.48;95455.28;4988361;28;20034;-73
2022/03/04 01:06:15;;;;;;;22.95;9.63;;;;;;;-4.53;71.51;95448.31;4977407;28;20042;-73
2022/03/04 01:08:41;;;;;;;21.13;9.95;;;;;;;-4.57;71.91;95449.63;4989250;28;20046;-73
2022/03/04 01:11:06;;;;;;;22.67;9.88;;;;;;;-4.62;71.87;95451.94;4977117;28;20038;-73
2022/03/04 01:13:32;;;;;;;21.75;9.73;;;;;;;-4.68;72.53;95443.16;4983028;28;20034;-73
2022/03/04 01:15:57;;;;;;;27.20;10.32;;;;;;;-4.70;73.12;95445.91;4973732;28;20107;-73
2022/03/04 01:18:23;;;;;;;23.88;9.10;;;;;;;-4.63;72.37;95447.75;4989642;28;20480;-73
2022/03/04 01:20:48;;;;;;;24.80;9.70;;;;;;;-4.72;72.87;95442.69;4989518;28;20046;-73
2022/03/04 01:23:14;;;;;;;30.23;11.30;;;;;;;-4.69;72.86;95446.69;4989262;28;20042;-72
2022/03/04 01:25:40;;;;;;;23.25;9.82;;;;;;;-4.74;72.32;95439.53;4982091;28;20345;-72
2022/03/04 01:28:05;;;;;;;29.77;10.00;;;;;;;-4.74;72.74;95434.38;4989441;28;20089;-73
2022/03/04 01:30:31;;;;;;;21.30;9.75;;;;;;;-4.80;73.09;95440.19;4988728;28;20042;-73
2022/03/04 01:32:56;;;;;;;31.40;9.77;;;;;;;-4.90;73.03;95429.38;4984904;28;20046;-73
2022/03/04 01:35:22;;;;;;;32.47;10.80;;;;;;;-4.94;73.90;95430.69;4973237;28;20463;-73
2022/03/04 01:37:48;;;;;;;32.88;10.43;;;;;;;-4.97;73.62;95436.19;4989724;28;20124;-73
2022/03/04 01:40:14;;;;;;;25.50;9.73;;;;;;;-4.95;74.10;95427.34;4989007;28;20053;-73
2022/03/04 01:42:40;;;;;;;29.13;9.85;;;;;;;-5.02;74.06;95441.06;4987996;28;20042;-73
2022/03/04 01:45:08;;;;;;;20.92;9.40;;;;;;;-5.09;74.43;95436.59;4988846;28;20049;-73
2022/03/04 01:47:34;;;;;;;30.58;10.07;;;;;;;-5.08;73.97;95427.94;4988794;28;20057;-73
2022/03/04 01:50:00;;;;;;;23.40;10.38;;;;;;;-5.03;74.51;95424.06;4978425;28;20050;-73
2022/03/04 01:52:25;;;;;;;31.90;10.23;;;;;;;-5.09;74.25;95431.47;4986833;28;20104;-73
2022/03/04 01:54:51;;;;;;;24.17;9.25;;;;;;;-5.13;73.99;95430.25;4973885;28;20042;-73
2022/03/04 01:57:16;;;;;;;28.45;10.15;;;;;;;-5.20;74.84;95424.22;4985813;28;20274;-73
2022/03/04 01:59:42;;;;;;;26.38;10.25;;;;;;;-5.23;74.81;95425.34;4989336;28;20074;-73
2022/03/04 02:02:10;;;;;;;25.13;10.18;;;;;;;-5.20;74.89;95424.22;4988958;28;20451;-73
2022/03/04 02:04:36;;;;;;;26.65;10.93;;;;;;;-5.14;74.33;95426.06;4978727;28;20058;-73
2022/03/04 02:07:03;;;;;;;23.17;10.57;;;;;;;-5.19;74.71;95425.78;4981664;28;20042;-73
2022/03/04 02:09:28;;;;;;;30.38;10.43;;;;;;;-5.25;75.05;95422.13;4989892;28;20411;-73
2022/03/04 02:11:54;;;;;;;21.60;9.82;;;;;;;-5.30;75.60;95421.06;4988276;28;20044;-73
2022/03/04 02:14:20;;;;;;;32.90;11.30;;;;;;;-5.33;75.49;95418.84;4988420;28;20124;-72
2022/03/04 02:16:48;;;;;;;29.75;11.27;;;;;;;-5.37;76.00;95413.28;4989025;28;20761;-73
2022/03/04 02:19:14;;;;;;;28.35;11.38;;;;;;;-5.45;76.22;95411.56;4988020;28;20052;-72
2022/03/04 02:21:51;;;;;;;24.30;10.23;;;;;;;-5.49;76.75;95415.41;4982919;28;20034;-73
2022/03/04 02:24:17;;;;;;;22.17;10.32;;;;;;;-5.54;76.85;95415.16;4990782;28;20042;-72
2022/03/04 02:26:44;;;;;;;26.80;10.25;;;;;;;-5.60;76.47;95413.28;4982606;28;20042;-72
2022/03/04 02:29:10;;;;;;;20.92;9.02;;;;;;;-5.59;77.04;95419.97;4993264;28;20101;-72
2022/03/04 02:31:35;;;;;;;30.40;10.10;;;;;;;-5.56;76.39;95419.63;4991410;28;20046;-72
2022/03/04 02:34:01;;;;;;;22.15;10.32;;;;;;;-5.58;76.45;95421.59;4990741;28;20051;-72
2022/03/04 02:36:26;;;;;;;22.33;10.20;;;;;;;-5.66;76.88;95413.94;4992824;28;20038;-72
2022/03/04 02:38:52;;;;;;;21.42;9.38;;;;;;;-5.62;76.97;95413.41;4984977;28;20451;-72
2022/03/04 02:41:18;;;;;;;31.15;11.07;;;;;;;-5.64;77.18;95412.81;4990447;28;20038;-72
2022/03/04 02:43:43;;;;;;;25.50;10.20;;;;;;;-5.71;77.49;95405.97;4992337;28;20393;-72
2022/03/04 02:46:09;;;;;;;24.70;10.23;;;;;;;-5.75;77.55;95401.19;4992950;28;20414;-72
2022/03/04 02:48:34;;;;;;;25.15;11.15;;;;;;;-5.83;77.96;95398.69;4988199;28;20506;-72
2022/03/04 02:51:00;;;;;;;24.52;10.15;;;;;;;-5.85;78.02;95395.47;4984074;28;20042;-73
2022/03/04 02:53:26;;;;;;;24.05;10.30;;;;;;;-5.88;77.83;95395.81;4991855;28;20564;-73
2022/03/04 02:55:51;;;;;;;29.67;9.85;;;;;;;-5.97;78.09;95389.19;4979309;28;20459;-73
2022/03/04 02:58:17;;;;;;;26.50;10.30;;;;;;;-5.99;78.39;95391.09;4990950;28;20046;-72
2022/03/04 03:00:43;;;;;;;26.25;10.80;;;;;;;-6.02;79.09;95388.88;4992105;28;20508;-72
2022/03/04 03:03:08;;;;;;;29.90;10.95;;;;;;;-6.06;79.37;95392.72;4990570;28;20043;-72
2022/03/04 03:05:34;;;;;;;27.15;10.13;;;;;;;-6.08;78.16;95385.22;4987468;28;20136;-72
2022/03/04 03:07:59;;;;;;;21.98;10.18;;;;;;;-6.08;78.56;95389.56;4992196;28;20081;-72
2022/03/04 03:10:25;;;;;;;25.55;10.43;;;;;;;-6.08;78.91;95394.69;4984649;28;20542;-72
2022/03/04 03:12:51;;;;;;;25.95;10.48;;;;;;;-6.10;79.13;95387.94;4991336;28;20492;-72
2022/03/04 03:15:17;;;;;;;24.25;10.13;;;;;;;-6.08;78.87;95399.81;4978865;28;20047;-72
2022/03/04 03:17:43;;;;;;;22.88;9.98;;;;;;;-6.07;78.69;95396.28;4984339;28;20038;-72
2022/03/04 03:20:09;;;;;;;23.70;9.82;;;;;;;-6.16;79.40;95398.88;4991008;28;20506;-72
2022/03/04 03:22:35;;;;;;;27.52;10.75;;;;;;;-6.22;78.94;95399.56;4991741;28;20183;-72
2022/03/04 03:25:01;;;;;;;23.73;9.73;;;;;;;-6.23;79.04;95397.94;4989051;28;20258;-72
2022/03/04 03:27:26;;;;;;;23.73;10.23;;;;;;;-6.25;79.82;95399.88;4991187;28;20062;-72
2022/03/04 03:29:52;;;;;;;23.92;10.82;;;;;;;-6.27;79.60;95399.25;4990705;28;20042;-71
2022/03/04 03:32:18;;;;;;;25.17;10.57;;;;;;;-6.37;80.55;95403.78;4991259;28;20508;-71
2022/03/04 03:34:43;;;;;;;28.05;10.88;;;;;;;-6.35;79.82;95405.22;4988270;28;20096;-71
2022/03/04 03:37:09;;;;;;;26.05;9.95;;;;;;;-6.38;80.21;95409.84;4984550;28;20047;-71
2022/03/04 03:39:36;;;;;;;27.50;11.65;;;;;;;-6.32;80.00;95419.41;4987296;28;20665;-72
2022/03/04 03:42:03;;;;;;;35.13;11.55;;;;;;;-6.31;79.26;95416.69;4989383;28;20070;-71
2022/03/04 03:44:29;;;;;;;30.70;12.10;;;;;;;-6.38;79.79;95414.97;4992024;28;20050;-71
2022/03/04 03:46:55;;;;;;;24.17;10.77;;;;;;;-6.38;80.47;95418.31;4991578;28;20038;-72
2022/03/04 03:49:21;;;;;;;30.67;12.10;;;;;;;-6.44;80.33;95416.44;4991856;28;20496;-72
2022/03/04 03:51:48;;;;;;;26.23;10.98;;;;;;;-6.47;80.83;95417.56;4983807;28;20046;-71
2022/03/04 03:54:14;;;;;;;30.45;11.07;;;;;;;-6.49;81.06;95424.63;4989802;28;20046;-72
2022/03/04 03:56:39;;;;;;;30.65;11.43;;;;;;;-6.47;81.29;95412.44;4990216;28;20462;-71
2022/03/04 03:59:05;;;;;;;22.75;10.25;;;;;;;-6.45;80.77;95420.75;4983146;28;20042;-72
2022/03/04 04:01:30;;;;;;;29.08;11.07;;;;;;;-6.51;80.97;95416.28;4991127;28;20042;-71
2022/03/04 04:03:56;;;;;;;32.38;11.38;;;;;;;-6.58;81.26;95424.78;4990133;28;20086;-72
2022/03/04 04:06:21;;;;;;;32.33;11.15;;;;;;;-6.65;81.39;95419.53;4988636;28;20142;-72
2022/03/04 04:08:47;;;;;;;25.70;11.55;;;;;;;-6.68;81.32;95427.53;4987080;28;20034;-72
2022/03/04 04:11:13;;;;;;;34.10;11.27;;;;;;;-6.69;81.19;95429.31;4991449;28;20499;-72
2022/03/04 04:13:38;;;;;;;33.15;11.25;;;;;;;-6.60;81.49;95427.53;4985470;28;20039;-72
2022/03/04 04:16:04;;;;;;;30.70;11.77;;;;;;;-6.65;80.58;95429.75;4991238;28;20507;-72
2022/03/04 04:18:30;;;;;;;30.67;11.38;;;;;;;-6.67;81.67;95432.50;4986859;28;20501;-72
2022/03/04 04:20:56;;;;;;;32.97;11.70;;;;;;;-6.73;81.13;95432.38;4989893;28;20456;-72
2022/03/04 04:23:21;;;;;;;32.20;11.68;;;;;;;-6.80;82.03;95433.00;4980998;28;20062;-72
2022/03/04 04:25:47;;;;;;;26.90;11.85;;;;;;;-6.81;81.79;95436.53;4989375;28;20039;-72
2022/03/04 04:28:12;;;;;;;27.88;10.65;;;;;;;-6.83;82.12;95437.66;4991405;28;20042;-72
2022/03/04 04:30:38;;;;;;;25.80;11.32;;;;;;;-6.91;81.90;95433.34;4988629;28;20053;-72
2022/03/04 04:33:04;;;;;;;27.77;11.18;;;;;;;-6.86;82.13;95437.97;4990546;28;20424;-72
2022/03/04 04:35:29;;;;;;;31.25;11.13;;;;;;;-6.85;82.23;95440.38;4985831;28;20042;-72
2022/03/04 04:37:55;;;;;;;24.67;11.15;;;;;;;-6.86;82.16;95436.22;4982539;28;20435;-72
2022/03/04 04:40:20;;;;;;;27.20;11.10;;;;;;;-6.89;82.29;95440.88;4985054;28;20081;-72
2022/03/04 04:42:46;;;;;;;27.60;12.43;;;;;;;-6.93;82.03;95435.25;4984195;28;20610;-72
2022/03/04 04:45:12;;;;;;;36.15;11.63;;;;;;;-6.87;82.24;95441.50;4984354;28;20042;-73
2022/03/04 04:47:38;;;;;;;31.15;12.05;;;;;;;-6.92;82.14;95449.66;4990336;28;20042;-72
2022/03/04 04:50:04;;;;;;;31.73;12.45;;;;;;;-6.84;82.24;95452.22;4988036;28;20054;-72
2022/03/04 04:52:30;;;;;;;32.00;12.38;;;;;;;-6.93;81.31;95453.16;4990335;28;20043;-73
2022/03/04 04:54:55;;;;;;;29.08;11.60;;;;;;;-6.99;81.71;95459.72;4984024;28;20811;-73
2022/03/04 04:57:21;;;;;;;29.67;12.45;;;;;;;-7.06;82.21;95468.22;4987472;28;20045;-73
2022/03/04 04:59:46;;;;;;;28.83;11.43;;;;;;;-7.09;82.51;95474.44;4982068;28;20066;-73
2022/03/04 05:02:12;;;;;;;32.33;11.68;;;;;;;-7.09;82.50;95473.66;4984866;28;20047;-73
2022/03/04 05:04:37;;;;;;;30.38;11.90;;;;;;;-7.00;82.85;95472.69;4989906;28;20085;-73
2022/03/04 05:07:03;;;;;;;30.60;13.20;;;;;;;-7.05;82.80;95469.81;4984691;28;20038;-72
2022/03/04 05:09:29;;;;;;;31.77;12.88;;;;;;;-7.09;83.37;95473.66;4978558;28;20034;-71
2022/03/04 05:11:54;;;;;;;30.85;12.63;;;;;;;-7.06;83.25;95473.34;4978068;28;20078;-72
2022/03/04 05:14:20;;;;;;;31.33;11.68;;;;;;;-7.10;82.65;95472.06;4979661;28;20046;-71
2022/03/04 05:16:46;;;;;;;27.45;11.20;;;;;;;-7.11;83.17;95465.34;4987172;28;20133;-71
2022/03/04 05:19:11;;;;;;;27.17;12.25;;;;;;;-7.11;83.65;95467.88;4980338;28;20596;-71
2022/03/04 05:21:37;;;;;;;29.13;11.73;;;;;;;-7.11;83.44;95470.44;4975230;28;20049;-71
2022/03/04 05:24:04;;;;;;;30.00;11.43;;;;;;;-7.09;84.00;95473.66;4971112;28;20421;-71
2022/03/04 05:26:32;;;;;;;31.70;12.45;;;;;;;-7.11;83.81;95476.38;4979025;28;20049;-72
2022/03/04 05:28:59;;;;;;;32.08;12.73;;;;;;;-7.20;83.81;95467.88;4988899;28;20392;-72
2022/03/04 05:31:25;;;;;;;34.22;12.15;;;;;;;-7.20;84.01;95473.00;4980904;28;20093;-71
2022/03/04 05:33:51;;;;;;;33.03;11.90;;;;;;;-7.17;83.93;95477.81;4978587;28;20065;-72
2022/03/04 05:36:17;;;;;;;29.70;12.50;;;;;;;-7.11;83.69;95480.69;4983977;28;20049;-72
2022/03/04 05:38:43;;;;;;;29.45;12.15;;;;;;;-7.16;84.03;95479.41;4978479;28;20598;-72
2022/03/04 05:41:08;;;;;;;27.17;11.60;;;;;;;-7.14;83.71;95492.84;4974632;28;20046;-71
2022/03/04 05:43:34;;;;;;;31.15;11.45;;;;;;;-7.15;83.76;95491.22;4987984;28;20099;-72
2022/03/04 05:45:59;;;;;;;30.83;11.75;;;;;;;-7.18;83.69;95496.66;4980238;28;20752;-72
2022/03/04 05:48:25;;;;;;;29.13;11.43;;;;;;;-7.23;84.25;95501.44;4989632;28;20042;-72
2022/03/04 05:50:51;;;;;;;26.52;11.55;;;;;;;-7.24;84.23;95502.44;4989935;28;20085;-71
2022/03/04 05:53:16;;;;;;;35.63;12.27;;;;;;;-7.19;84.32;95510.41;4980206;28;20164;-71
2022/03/04 05:55:42;;;;;;;29.63;11.43;;;;;;;-7.19;84.02;95515.53;4976773;28;20042;-72
2022/03/04 05:58:08;;;;;;;26.63;11.80;;;;;;;-7.22;83.84;95515.84;4981660;28;20538;-72
2022/03/04 06:00:33;;;;;;;31.45;12.05;;;;;;;-7.27;83.70;95523.19;4987526;28;20118;-72
2022/03/04 06:02:59;;;;;;;28.45;11.32;;;;;;;-7.32;84.32;95521.09;4981710;28;20515;-72
2022/03/04 06:05:25;;;;;;;29.77;11.73;;;;;;;-7.39;84.43;95530.34;4986455;28;20039;-72
2022/03/04 06:07:50;;;;;;;31.63;12.27;;;;;;;-7.30;85.04;95528.59;4988415;28;20658;-72
2022/03/04 06:10:16;;;;;;;33.47;12.07;;;;;;;-7.30;85.00;95518.38;4988827;28;20494;-72
2022/03/04 06:12:41;;;;;;;37.42;12.50;;;;;;;-7.21;84.96;95527.69;4986802;28;20130;-72
2022/03/04 06:15:08;;;;;;;33.13;12.02;;;;;;;-7.19;84.94;95525.75;4985566;28;20046;-72
2022/03/04 06:17:34;;;;;;;31.17;12.07;;;;;;;-7.18;85.31;95532.47;4979470;28;20031;-72
2022/03/04 06:20:00;;;;;;;33.42;12.10;;;;;;;-7.08;84.52;95531.50;4985074;28;20506;-72
2022/03/04 06:22:26;;;;;;;30.80;12.52;;;;;;;-7.10;85.13;95543.66;4987235;28;20042;-72
2022/03/04 06:24:52;;;;;;;34.25;11.88;;;;;;;-7.08;85.59;95536.63;4987755;28;20043;-72
2022/03/04 06:27:17;;;;;;;31.80;12.38;;;;;;;-7.01;85.15;95538.41;4970736;28;20043;-73
2022/03/04 06:29:43;;;;;;;30.83;12.15;;;;;;;-6.88;84.85;95537.94;4975505;28;20169;-73
2022/03/04 06:32:09;;;;;;;33.05;12.88;;;;;;;-6.87;84.97;95539.53;4988821;28;20042;-69
2022/03/04 06:34:35;;;;;;;37.53;12.60;;;;;;;-6.88;85.11;95537.94;4980891;28;20042;-70
2022/03/04 06:37:01;;;;;;;34.55;13.60;;;;;;;-6.80;84.79;95548.16;4987115;28;20420;-73
2022/03/04 06:39:27;;;;;;;32.60;12.45;;;;;;;-6.75;84.60;95552.00;4988860;28;20046;-73
2022/03/04 06:41:53;;;;;;;36.00;12.80;;;;;;;-6.73;84.48;95547.53;4987277;28;20037;-72
2022/03/04 06:44:18;;;;;;;32.58;13.07;;;;;;;-6.66;83.99;95561.28;4987853;28;20039;-72
2022/03/04 06:46:44;;;;;;;38.25;11.98;;;;;;;-6.62;84.06;95557.47;4977012;28;20039;-72
2022/03/04 06:49:10;;;;;;;32.28;11.90;;;;;;;-6.57;84.24;95565.44;4986060;28;20046;-72
2022/03/04 06:51:37;;;;;;;41.00;12.85;;;;;;;-6.43;84.39;95563.22;4989150;28;20551;-72
2022/03/04 06:54:03;;;;;;;25.33;11.32;;;;;;;-6.46;83.76;95561.75;4987837;28;20042;-72
2022/03/04 06:56:28;;;;;;;36.95;13.30;;;;;;;-6.45;85.00;95573.59;4982485;28;20054;-71
2022/03/04 06:58:54;;;;;;;32.45;12.82;;;;;;;-6.25;84.25;95568.91;4989370;28;20050;-71
2022/03/04 07:01:21;;;;;;;33.25;13.35;;;;;;;-6.14;84.24;95566.00;4989111;28;20042;-72
2022/03/04 07:03:47;;;;;;;33.55;13.52;;;;;;;-6.14;83.80;95571.13;4987338;28;20101;-72
2022/03/04 07:06:13;;;;;;;53.13;14.65;;;;;;;-6.07;83.80;95570.50;4987771;28;20515;-72
2022/03/04 07:08:39;;;;;;;57.42;14.82;;;;;;;-6.03;83.45;95571.75;4990779;28;20068;-76
2022/03/04 07:11:05;;;;;;;41.45;12.90;;;;;;;-5.90;84.26;95572.03;4993019;28;20069;-72
2022/03/04 07:13:31;;;;;;;35.78;13.82;;;;;;;-5.78;84.10;95569.91;4986738;28;20049;-70
2022/03/04 07:15:56;;;;;;;33.92;13.43;;;;;;;-5.65;83.45;95575.28;4979742;28;20046;-72
2022/03/04 07:18:23;;;;;;;45.05;14.32;;;;;;;-5.55;82.87;95575.09;4990205;28;20049;-72
2022/03/04 07:20:49;;;;;;;42.45;14.27;;;;;;;-5.53;83.24;95580.88;4991605;28;20045;-71
2022/03/04 07:23:16;;;;;;;35.30;13.38;;;;;;;-5.42;83.43;95570.22;4988009;28;20066;-69
2022/03/04 07:25:42;;;;;;;37.03;14.07;;;;;;;-5.35;82.89;95572.13;4987291;28;20508;-69
2022/03/04 07:28:08;;;;;;;33.67;14.25;;;;;;;-5.32;83.10;95574.34;4988474;28;20042;-70
2022/03/04 07:30:34;;;;;;;32.92;14.00;;;;;;;-5.16;82.46;95579.38;4979527;28;20045;-69
2022/03/04 07:33:02;;;;;;;30.83;13.07;;;;;;;-5.13;82.78;95584.22;4990507;28;20128;-72
2022/03/04 07:35:27;;;;;;;39.00;14.45;;;;;;;-4.99;81.52;95585.22;4986330;28;20640;-72
2022/03/04 07:37:53;;;;;;;39.70;13.07;;;;;;;-4.92;81.51;95585.34;4977685;28;20043;-73
2022/03/04 07:40:19;;;;;;;31.30;12.95;;;;;;;-4.90;81.64;95583.41;4976444;28;20035;-73
2022/03/04 07:42:44;;;;;;;34.10;13.43;;;;;;;-4.82;81.72;95585.94;4978909;28;20049;-71
2022/03/04 07:45:12;;;;;;;33.15;13.32;;;;;;;-4.73;80.39;95590.03;4991381;28;20069;-72
2022/03/04 07:47:39;;;;;;;38.45;12.60;;;;;;;-4.53;79.37;95589.56;4992432;28;20045;-71
2022/03/04 07:50:11;;;;;;;37.83;14.07;;;;;;;-4.43;78.47;95590.13;4989891;28;20046;-73
2022/03/04 07:52:37;;;;;;;32.60;13.15;;;;;;;-4.16;76.32;95600.81;4981154;28;20547;-72
2022/03/04 07:55:05;;;;;;;40.35;14.05;;;;;;;-4.26;78.61;95595.13;4984903;28;20047;-71
2022/03/04 07:57:31;;;;;;;35.42;13.32;;;;;;;-4.27;77.60;95596.09;4986401;28;20042;-74
2022/03/04 07:59:56;;;;;;;37.00;12.80;;;;;;;-4.06;75.69;95596.22;4984466;28;20113;-70
2022/03/04 08:02:22;;;;;;;37.17;13.60;;;;;;;-4.03;76.06;95603.59;4986819;28;20050;-71
2022/03/04 08:04:48;;;;;;;34.35;13.18;;;;;;;-3.72;75.32;95601.81;4990124;28;20041;-70
2022/03/04 08:07:13;;;;;;;31.90;13.85;;;;;;;-3.73;75.28;95598.47;4992139;28;20080;-71
2022/03/04 08:09:40;;;;;;;37.95;13.38;;;;;;;-3.56;73.10;95606.00;4991568;28;20043;-71
2022/03/04 08:12:06;;;;;;;29.90;11.65;;;;;;;-3.44;71.30;95602.00;4986681;28;20049;-72
2022/03/04 08:14:32;;;;;;;27.88;12.77;;;;;;;-3.38;70.41;95603.84;4989645;28;20046;-72
2022/03/04 08:16:57;;;;;;;31.10;12.40;;;;;;;-3.37;70.81;95609.81;4985693;28;20034;-71
2022/03/04 08:19:23;;;;;;;33.53;12.13;;;;;;;-3.29;68.81;95607.13;4990076;28;20046;-71
2022/03/04 08:21:49;;;;;;;33.70;12.43;;;;;;;-3.25;68.74;95615.31;4991686;28;20047;-72
2022/03/04 08:24:14;;;;;;;34.67;13.48;;;;;;;-3.16;69.25;95611.63;4990157;28;20043;-74
2022/03/04 08:26:41;;;;;;;31.17;11.00;;;;;;;-3.11;66.94;95624.78;4972700;28;20046;-72
2022/03/04 08:29:10;;;;;;;29.35;11.57;;;;;;;-2.80;66.39;95616.00;4984437;28;20054;-74
2022/03/04 08:31:37;;;;;;;32.33;12.27;;;;;;;-2.80;66.88;95626.31;4990097;28;20076;-76
2022/03/04 08:34:04;;;;;;;32.13;12.50;;;;;;;-2.68;65.41;95624.84;4982333;28;20038;-75
2022/03/04 08:36:31;;;;;;;28.20;11.05;;;;;;;-2.46;64.45;95624.84;4990883;28;20034;-71
2022/03/04 08:38:56;;;;;;;34.50;11.80;;;;;;;-2.44;65.27;95625.47;4991516;28;20125;-74
2022/03/04 08:41:24;;;;;;;34.67;12.27;;;;;;;-2.18;63.61;95629.25;4985230;28;20039;-72
2022/03/04 08:43:51;;;;;;;34.75;11.85;;;;;;;-2.31;63.78;95627.38;4987441;28;20034;-76
2022/03/04 08:46:17;;;;;;;32.38;11.65;;;;;;;-1.94;60.32;95628.03;4991481;28;20054;-71
2022/03/04 08:48:43;;;;;;;34.55;12.70;;;;;;;-2.08;63.20;95629.72;4987203;28;20045;-72
2022/03/04 08:51:09;;;;;;;26.77;11.75;;;;;;;-2.01;62.92;95625.41;4971987;28;20162;-71
2022/03/04 08:53:35;;;;;;;23.50;10.93;;;;;;;-1.62;61.81;95624.09;4984760;28;20501;-72
2022/03/04 08:56:03;;;;;;;27.90;12.63;;;;;;;-1.59;61.47;95615.16;4985808;28;20046;-77
2022/03/04 08:58:28;;;;;;;31.00;12.75;;;;;;;-1.65;61.42;95629.63;4991017;28;20098;-80
2022/03/04 09:00:54;;;;;;;25.85;11.60;;;;;;;-1.49;61.16;95632.91;4992066;28;20121;-75
2022/03/04 09:03:19;;;;;;;27.92;12.57;;;;;;;-1.42;60.31;95626.00;4988189;28;20611;-76
2022/03/04 09:05:45;;;;;;;34.83;12.45;;;;;;;-1.36;60.39;95625.22;4979669;28;20089;-72
2022/03/04 09:08:10;;;;;;;30.52;11.82;;;;;;;-1.24;60.03;95626.25;4989291;28;20053;-72
2022/03/04 09:10:36;;;;;;;27.45;12.27;;;;;;;-1.12;58.79;95623.13;4990501;28;20464;-72
2022/03/04 09:13:04;;;;;;;33.65;12.63;;;;;;;-0.89;57.81;95623.63;4973859;28;20047;-72
2022/03/04 09:15:30;;;;;;;30.20;12.48;;;;;;;-0.90;58.89;95616.84;4988745;28;20046;-72
2022/03/04 09:17:55;;;;;;;28.20;12.07;;;;;;;-0.88;58.50;95614.88;4990757;28;20054;-72
2022/03/04 09:20:21;;;;;;;31.40;12.30;;;;;;;-0.84;58.78;95620.44;4979821;28;20046;-72
2022/03/04 09:22:47;;;;;;;28.98;11.95;;;;;;;-0.44;57.38;95614.56;4987784;28;20035;-75
2022/03/04 09:25:14;;;;;;;29.13;12.85;;;;;;;-0.54;58.78;95615.75;4984618;28;20495;-74
2022/03/04 09:27:41;;;;;;;33.92;12.68;;;;;;;-0.51;57.88;95608.59;4994271;28;20044;-73
2022/03/04 09:30:08;;;;;;;30.98;13.02;;;;;;;-0.41;58.69;95614.97;4986003;28;20038;-72
2022/03/04 09:32:34;;;;;;;28.42;11.98;;;;;;;-0.34;58.12;95609.81;4980621;28;21793;-72
2022/03/04 09:35:00;;;;;;;32.35;12.90;;;;;;;-0.24;56.20;95605.03;4989741;28;20097;-72
2022/03/04 09:37:25;;;;;;;33.53;13.15;;;;;;;-0.08;56.51;95610.81;4982908;28;20039;-73
2022/03/04 09:39:51;;;;;;;26.27;11.70;;;;;;;0.37;54.76;95610.94;4990315;28;20050;-72
2022/03/04 09:42:18;;;;;;;31.10;12.10;;;;;;;0.90;53.36;95604.03;4986722;28;20396;-72
2022/03/04 09:44:44;;;;;;;29.30;13.65;;;;;;;0.67;52.73;95606.09;4984075;28;20035;-72
2022/03/04 09:47:10;;;;;;;30.92;12.07;;;;;;;0.73;53.78;95599.28;5011241;28;20045;-72
2022/03/04 09:49:37;;;;;;;30.05;12.57;;;;;;;0.91;54.88;95609.00;4996834;28;20092;-71
2022/03/04 09:52:05;;;;;;;29.33;11.63;;;;;;;1.00;52.79;95604.38;4998585;28;20046;-72
2022/03/04 09:54:31;;;;;;;30.80;13.68;;;;;;;0.99;53.44;95597.59;4981566;28;20069;-72
2022/03/04 09:56:58;;;;;;;29.98;12.43;;;;;;;1.19;52.75;95597.50;4993371;28;20038;-71
2022/03/04 09:59:24;;;;;;;30.25;13.40;;;;;;;1.83;50.50;95593.09;4994714;28;20566;-71
2022/03/04 10:01:50;;;;;;;33.38;13.02;;;;;;;1.87;50.52;95593.50;4995316;28;20038;-72
2022/03/04 10:04:16;;;;;;;33.28;13.27;;;;;;;1.94;51.20;95585.63;4992074;28;20047;-72
2022/03/04 10:06:47;;;;;;;31.55;13.52;;;;;;;2.19;49.44;95586.41;4990746;28;20058;-76
2022/03/04 10:09:14;;;;;;;33.75;13.77;;;;;;;2.64;48.32;95587.16;4989827;28;20057;-73
2022/03/04 10:11:40;;;;;;;34.22;14.15;;;;;;;2.90;47.29;95586.88;4975111;28;20039;-71
2022/03/04 10:14:08;;;;;;;30.73;12.18;;;;;;;3.04;45.48;95581.50;4980612;28;20554;-72
2022/03/04 10:16:42;;;;;;;31.15;13.55;;;;;;;3.49;46.32;95586.28;4971391;28;20050;-73
2022/03/04 10:19:09;;;;;;;;;;;;;;;4.47;42.89;95588.53;4988223;28;20125;-73
2022/03/04 10:21:52;;;;;;;25.00;11.35;;;;;;;5.11;40.56;95582.50;4990816;28;19974;-73
2022/03/04 10:24:39;;;;;;;29.50;12.57;;;;;;;5.84;39.25;95578.25;4988446;28;20038;-73
2022/03/04 10:27:10;;;;;;;30.42;11.98;;;;;;;6.03;39.12;95584.09;4971897;28;20489;-73
2022/03/04 10:29:44;;;;;;;31.52;12.75;;;;;;;6.56;37.58;95581.16;4974370;28;20034;-70
2022/03/04 10:32:10;;;;;;;;;;;;;;;6.31;38.44;95579.78;4989557;28;20161;-71
2022/03/04 10:34:51;;;;;;;23.98;11.40;;;;;;;7.08;36.93;95578.13;4990131;28;20390;-71
2022/03/04 10:37:25;;;;;;;33.40;13.48;;;;;;;6.60;37.63;95577.03;4991220;28;20500;-72
2022/03/04 10:40:18;;;;;;;31.55;13.80;;;;;;;5.87;37.79;95574.38;4982771;28;20046;-73
2022/03/04 10:42:54;;;;;;;39.67;13.85;;;;;;;5.93;38.69;95578.66;4980828;28;20046;-72
2022/03/04 10:45:24;;;;;;;32.22;13.20;;;;;;;5.69;37.88;95573.59;4994359;28;20121;-72
2022/03/04 10:48:13;;;;;;;32.58;14.25;;;;;;;6.07;38.83;95574.72;4994441;28;20054;-72
2022/03/04 10:50:52;;;;;;;34.20;14.38;;;;;;;8.23;34.84;95565.78;4974816;28;20047;-72
2022/03/04 10:53:29;;;;;;;29.67;13.75;;;;;;;9.03;32.93;95567.47;4977781;28;20065;-72
2022/03/04 10:55:57;;;;;;;29.20;13.30;;;;;;;7.62;34.33;95566.88;4980729;28;20043;-73
2022/03/04 10:58:27;;;;;;;27.95;12.95;;;;;;;7.90;33.77;95566.81;4986169;28;20046;-73
2022/03/04 11:00:56;;;;;;;27.90;13.48;;;;;;;9.05;31.70;95568.03;4980285;28;20504;-73
2022/03/04 11:03:24;;;;;;;33.25;14.60;;;;;;;7.60;34.16;95563.72;4992653;28;20058;-72
2022/03/04 11:05:51;;;;;;;33.03;14.95;;;;;;;7.60;33.94;95565.53;4992851;28;20105;-72
2022/03/04 11:08:17;;;;;;;38.63;14.90;;;;;;;8.78;33.64;95561.09;4974255;28;20070;-73
2022/03/04 11:10:44;;;;;;;30.17;13.80;;;;;;;10.47;28.82;95559.69;4974657;28;20580;-74
2022/03/04 11:13:11;;;;;;;31.33;13.68;;;;;;;9.77;31.02;95559.47;4974015;28;20467;-71
2022/03/04 11:15:38;;;;;;;39.10;16.73;;;;;;;9.14;32.24;95557.81;4974828;28;20085;-73